createdAt,value
2018-03-24T00:00:33.810Z,99.90
2018-03-24T00:03:12.259Z,99.90
2018-03-24T00:05:50.728Z,99.90
2018-03-24T00:08:18.439Z,99.90
2018-03-24T00:10:45.354Z,99.90
2018-03-24T00:13:12.300Z,99.90
2018-03-24T00:15:39.204Z,99.90
2018-03-24T00:18:06.226Z,99.90
2018-03-24T00:20:33.115Z,99.90
2018-03-24T00:23:00.818Z,99.90
2018-03-24T00:25:27.805Z,99.90
2018-03-24T00:27:54.774Z,99.90
2018-03-24T00:30:22.415Z,99.90
2018-03-24T00:32:49.364Z,99.90
2018-03-24T00:35:27.271Z,99.90
2018-03-24T00:37:54.928Z,99.90
2018-03-24T00:40:21.880Z,99.90
2018-03-24T00:42:55.723Z,99.90
2018-03-24T00:45:22.779Z,99.90
2018-03-24T00:47:53.307Z,99.90
2018-03-24T00:50:35.550Z,99.90
2018-03-24T00:53:12.618Z,99.90
2018-03-24T00:55:39.516Z,99.90
2018-03-24T00:58:07.200Z,99.90
2018-03-24T01:00:46.159Z,99.90
2018-03-24T01:03:25.141Z,99.90
2018-03-24T01:06:04.742Z,99.90
2018-03-24T01:08:43.450Z,99.90
2018-03-24T01:11:22.709Z,99.90
2018-03-24T01:13:50.392Z,99.90
2018-03-24T01:16:27.525Z,99.90
2018-03-24T01:19:00.226Z,99.90
2018-03-24T01:21:33.855Z,99.90
2018-03-24T01:24:00.771Z,99.90
2018-03-24T01:26:38.854Z,99.90
2018-03-24T01:29:17.126Z,99.90
2018-03-24T01:31:51.934Z,99.90
2018-03-24T01:34:31.360Z,99.90
2018-03-24T01:37:09.967Z,99.90
2018-03-24T01:39:38.536Z,99.90
2018-03-24T01:42:05.488Z,99.90
2018-03-24T01:44:32.453Z,99.90
2018-03-24T01:47:00.984Z,99.90
2018-03-24T01:49:27.876Z,99.90
2018-03-24T01:51:54.829Z,99.90
2018-03-24T01:54:26.387Z,99.90
2018-03-24T01:56:53.355Z,99.90
2018-03-24T01:59:20.271Z,99.90
2018-03-24T02:01:51.462Z,99.90
2018-03-24T02:04:20.393Z,99.90
2018-03-24T02:06:49.604Z,99.90
2018-03-24T02:09:16.587Z,99.90
2018-03-24T02:11:43.520Z,99.90
2018-03-24T02:14:10.462Z,99.90
2018-03-24T02:16:37.339Z,99.90
2018-03-24T02:19:04.279Z,99.90
2018-03-24T02:21:32.156Z,99.90
2018-03-24T02:23:59.167Z,99.90
2018-03-24T02:26:27.843Z,99.90
2018-03-24T02:28:55.103Z,99.90
2018-03-24T02:31:22.838Z,99.90
2018-03-24T02:33:49.914Z,99.90
2018-03-24T02:36:16.812Z,99.90
2018-03-24T02:38:43.712Z,99.90
2018-03-24T02:41:10.698Z,99.90
2018-03-24T02:43:37.583Z,99.90
2018-03-24T02:46:04.566Z,99.90
2018-03-24T02:48:31.449Z,99.90
2018-03-24T02:50:59.336Z,99.90
2018-03-24T02:53:26.190Z,99.90
2018-03-24T02:55:53.120Z,99.90
2018-03-24T02:58:20.063Z,99.90
2018-03-24T03:00:46.994Z,99.90
2018-03-24T03:03:14.252Z,99.90
2018-03-24T03:05:42.129Z,99.90
2018-03-24T03:08:09.259Z,99.90
2018-03-24T03:10:37.283Z,99.90
2018-03-24T03:13:04.568Z,99.90
2018-03-24T03:15:31.470Z,99.90
2018-03-24T03:17:58.702Z,99.90
2018-03-24T03:20:26.640Z,99.90
2018-03-24T03:22:53.556Z,99.90
2018-03-24T03:25:20.572Z,99.90
2018-03-24T03:27:48.260Z,99.90
2018-03-24T03:30:29.985Z,99.90
2018-03-24T03:32:57.026Z,99.90
2018-03-24T03:35:24.004Z,99.90
2018-03-24T03:37:50.868Z,99.90
2018-03-24T03:40:18.536Z,99.90
2018-03-24T03:42:45.411Z,99.90
2018-03-24T03:45:12.350Z,99.90
2018-03-24T03:47:39.234Z,99.90
2018-03-24T03:50:06.281Z,99.90
2018-03-24T03:52:33.167Z,99.90
2018-03-24T03:55:00.088Z,99.90
2018-03-24T03:57:27.150Z,99.90
2018-03-24T03:59:54.844Z,99.90
2018-03-24T04:02:21.724Z,99.90
2018-03-24T04:04:48.671Z,99.90
2018-03-24T04:07:15.536Z,99.90
2018-03-24T04:09:42.486Z,99.90
2018-03-24T04:12:09.404Z,99.90
2018-03-24T04:14:36.360Z,99.90
2018-03-24T04:17:03.235Z,99.90
2018-03-24T04:19:30.162Z,99.90
2018-03-24T04:21:57.115Z,99.90
2018-03-24T04:24:24.831Z,99.90
2018-03-24T04:26:51.759Z,99.90
2018-03-24T04:29:18.630Z,99.90
2018-03-24T04:31:45.572Z,99.90
2018-03-24T04:34:12.452Z,99.90
2018-03-24T04:36:39.427Z,99.90
2018-03-24T04:39:06.367Z,99.90
2018-03-24T04:41:33.393Z,99.90
2018-03-24T04:44:00.284Z,99.90
2018-03-24T04:46:27.160Z,99.90
2018-03-24T04:48:54.097Z,99.90
2018-03-24T04:51:20.995Z,99.90
2018-03-24T04:53:48.725Z,99.90
2018-03-24T04:56:15.588Z,99.90
2018-03-24T04:58:42.524Z,99.90
2018-03-24T05:01:09.502Z,99.90
2018-03-24T05:03:36.376Z,99.90
2018-03-24T05:06:03.292Z,99.90
2018-03-24T05:08:30.230Z,99.90
2018-03-24T05:10:57.140Z,99.90
2018-03-24T05:13:24.079Z,99.90
2018-03-24T05:15:51.045Z,99.90
2018-03-24T05:18:17.983Z,99.90
2018-03-24T05:20:44.860Z,99.90
2018-03-24T05:23:12.461Z,99.90
2018-03-24T05:25:40.596Z,99.90
2018-03-24T05:28:23.649Z,99.90
2018-03-24T05:30:51.408Z,99.90
2018-03-24T05:33:18.350Z,99.90
2018-03-24T05:35:45.220Z,99.90
2018-03-24T05:38:12.149Z,99.90
2018-03-24T05:40:39.038Z,99.90
2018-03-24T05:43:05.983Z,99.90
2018-03-24T05:45:32.857Z,99.90
2018-03-24T05:48:00.485Z,99.90
2018-03-24T05:50:27.453Z,99.90
2018-03-24T05:52:55.067Z,99.90
2018-03-24T05:55:22.006Z,99.90
2018-03-24T05:57:48.903Z,99.90
2018-03-24T06:00:16.687Z,99.90
2018-03-24T06:02:44.365Z,99.90
2018-03-24T06:05:11.254Z,99.90
2018-03-24T06:07:38.179Z,99.90
2018-03-24T06:10:05.250Z,99.90
2018-03-24T06:12:32.141Z,99.90
2018-03-24T06:14:59.083Z,99.90
2018-03-24T06:17:26.764Z,99.90
2018-03-24T06:19:53.737Z,99.90
2018-03-24T06:22:20.611Z,99.90
2018-03-24T06:24:47.483Z,99.90
2018-03-24T06:27:15.193Z,99.90
2018-03-24T06:29:42.146Z,99.90
2018-03-24T06:32:09.163Z,99.90
2018-03-24T06:34:36.172Z,99.90
2018-03-24T06:37:13.802Z,99.90
2018-03-24T06:39:40.786Z,99.90
2018-03-24T06:42:07.801Z,99.90
2018-03-24T06:44:34.762Z,99.90
2018-03-24T06:47:01.756Z,99.90
2018-03-24T06:49:29.445Z,99.90
2018-03-24T06:51:56.367Z,99.90
2018-03-24T06:54:23.299Z,99.90
2018-03-24T06:56:50.186Z,99.90
2018-03-24T06:59:17.144Z,99.90
2018-03-24T07:01:44.064Z,99.90
2018-03-24T07:04:11.798Z,99.90
2018-03-24T07:06:39.304Z,99.90
2018-03-24T07:09:19.669Z,99.90
2018-03-24T07:11:47.213Z,99.90
2018-03-24T07:14:14.167Z,99.90
2018-03-24T07:16:41.124Z,99.90
2018-03-24T07:19:08.045Z,99.90
2018-03-24T07:21:35.007Z,99.90
2018-03-24T07:24:01.980Z,99.90
2018-03-24T07:26:28.907Z,99.90
2018-03-24T07:28:55.863Z,99.90
2018-03-24T07:31:22.907Z,99.90
2018-03-24T07:33:49.812Z,99.90
2018-03-24T07:36:17.513Z,99.90
2018-03-24T07:38:47.669Z,99.90
2018-03-24T07:41:14.783Z,99.90
2018-03-24T07:43:41.694Z,99.90
2018-03-24T07:46:09.460Z,99.90
2018-03-24T07:48:37.080Z,99.90
2018-03-24T07:51:04.010Z,99.90
2018-03-24T07:53:31.033Z,99.90
2018-03-24T07:55:57.994Z,99.90
2018-03-24T07:58:24.956Z,99.90
2018-03-24T08:00:51.936Z,99.90
2018-03-24T08:03:18.827Z,99.90
2018-03-24T08:05:45.807Z,99.90
2018-03-24T08:08:12.695Z,99.90
2018-03-24T08:10:40.406Z,96.90
2018-03-24T08:13:07.348Z,96.40
2018-03-24T08:15:34.356Z,89.20
2018-03-24T08:18:01.999Z,70.70
2018-03-24T08:20:28.934Z,70.60
2018-03-24T08:22:55.875Z,63.50
2018-03-24T08:25:22.780Z,61.30
2018-03-24T08:27:49.798Z,55.80
2018-03-24T08:30:16.877Z,55.80
2018-03-24T08:32:43.814Z,56.60
2018-03-24T08:35:10.763Z,71.30
2018-03-24T08:37:37.789Z,67.60
2018-03-24T08:40:05.551Z,67.70
2018-03-24T08:42:32.439Z,67.70
2018-03-24T08:44:59.432Z,68.50
2018-03-24T08:47:26.348Z,68.00
2018-03-24T08:49:53.333Z,55.60
2018-03-24T08:52:20.308Z,59.70
2018-03-24T08:54:47.213Z,60.90
2018-03-24T08:57:14.277Z,55.80
2018-03-24T08:59:41.905Z,58.80
2018-03-24T09:02:08.816Z,58.30
2018-03-24T09:04:35.816Z,57.00
2018-03-24T09:07:02.777Z,57.30
2018-03-24T09:09:29.697Z,59.70
2018-03-24T09:11:56.683Z,59.70
2018-03-24T09:14:24.446Z,53.80
2018-03-24T09:16:53.447Z,49.60
2018-03-24T09:19:21.460Z,51.40
2018-03-24T09:21:48.484Z,51.30
2018-03-24T09:24:15.502Z,55.60
2018-03-24T09:26:42.502Z,49.80
2018-03-24T09:29:09.586Z,55.80
2018-03-24T09:31:36.579Z,58.90
2018-03-24T09:34:03.545Z,59.20
2018-03-24T09:36:30.432Z,58.80
2018-03-24T09:38:57.534Z,53.20
2018-03-24T09:41:24.519Z,53.20
2018-03-24T09:43:51.447Z,58.50
2018-03-24T09:46:18.424Z,59.70
2018-03-24T09:48:45.357Z,59.70
2018-03-24T09:51:12.237Z,67.40
2018-03-24T09:53:39.994Z,72.60
2018-03-24T09:56:07.611Z,71.80
2018-03-24T09:58:34.788Z,71.20
2018-03-24T10:01:01.821Z,68.50
2018-03-24T10:03:28.716Z,72.80
2018-03-24T10:05:55.665Z,78.20
2018-03-24T10:08:22.546Z,78.50
2018-03-24T10:10:49.512Z,86.70
2018-03-24T10:13:16.484Z,80.40
2018-03-24T10:15:44.033Z,82.40
2018-03-24T10:18:11.073Z,87.30
2018-03-24T10:20:51.190Z,84.70
2018-03-24T10:23:30.265Z,88.40
2018-03-24T10:25:57.210Z,84.60
2018-03-24T10:28:24.143Z,91.20
2018-03-24T10:30:51.029Z,86.60
2018-03-24T10:33:18.014Z,83.10
2018-03-24T10:35:44.888Z,90.80
2018-03-24T10:38:12.659Z,91.20
2018-03-24T10:40:39.759Z,91.20
2018-03-24T10:43:12.708Z,89.40
2018-03-24T10:45:41.014Z,91.40
2018-03-24T10:48:08.020Z,90.90
2018-03-24T10:50:34.971Z,85.40
2018-03-24T10:53:03.702Z,83.00
2018-03-24T10:55:31.531Z,82.50
2018-03-24T10:57:58.614Z,80.60
2018-03-24T11:00:31.587Z,74.00
2018-03-24T11:02:58.471Z,74.10
2018-03-24T11:05:25.489Z,72.60
2018-03-24T11:07:52.427Z,75.70
2018-03-24T11:10:20.093Z,67.60
2018-03-24T11:12:47.044Z,67.50
2018-03-24T11:15:13.921Z,67.50
2018-03-24T11:17:40.894Z,70.60
2018-03-24T11:20:07.839Z,70.00
2018-03-24T11:22:34.812Z,65.60
2018-03-24T11:25:01.693Z,62.30
2018-03-24T11:27:28.639Z,65.20
2018-03-24T11:29:55.572Z,66.10
2018-03-24T11:32:22.525Z,65.00
2018-03-24T11:34:49.401Z,65.40
2018-03-24T11:37:16.343Z,71.00
2018-03-24T11:39:43.217Z,75.20
2018-03-24T11:42:10.908Z,78.30
2018-03-24T11:44:37.846Z,77.80
2018-03-24T11:47:04.863Z,78.90
2018-03-24T11:49:31.817Z,78.60
2018-03-24T11:51:58.720Z,80.50
2018-03-24T11:54:37.806Z,86.30
2018-03-24T11:57:05.444Z,82.50
2018-03-24T11:59:32.513Z,82.20
2018-03-24T12:01:59.395Z,79.20
2018-03-24T12:04:26.268Z,76.20
2018-03-24T12:06:53.222Z,73.70
2018-03-24T12:09:20.096Z,69.20
2018-03-24T12:11:47.789Z,64.10
2018-03-24T12:14:14.668Z,63.60
2018-03-24T12:16:41.596Z,63.70
2018-03-24T12:19:08.480Z,68.30
2018-03-24T12:21:35.409Z,62.50
2018-03-24T12:24:02.371Z,65.60
2018-03-24T12:26:29.343Z,66.10
2018-03-24T12:28:56.984Z,61.30
2018-03-24T12:31:23.972Z,61.30
2018-03-24T12:33:50.869Z,63.10
2018-03-24T12:36:17.855Z,57.20
2018-03-24T12:38:44.786Z,63.50
2018-03-24T12:41:11.731Z,60.50
2018-03-24T12:43:38.731Z,64.30
2018-03-24T12:46:06.341Z,62.30
2018-03-24T12:48:34.211Z,60.30
2018-03-24T12:51:01.952Z,61.80
2018-03-24T12:53:28.866Z,61.80
2018-03-24T12:55:55.781Z,60.70
2018-03-24T12:58:22.947Z,63.70
2018-03-24T13:00:49.867Z,62.60
2018-03-24T13:03:16.823Z,61.30
2018-03-24T13:05:43.716Z,62.30
2018-03-24T13:08:10.659Z,65.40
2018-03-24T13:10:37.549Z,67.20
2018-03-24T13:13:04.499Z,71.70
2018-03-24T13:15:32.120Z,66.90
2018-03-24T13:17:59.083Z,67.00
2018-03-24T13:20:25.994Z,63.70
2018-03-24T13:22:53.047Z,67.70
2018-03-24T13:25:19.919Z,68.30
2018-03-24T13:27:46.823Z,70.90
2018-03-24T13:30:13.787Z,68.70
2018-03-24T13:32:40.692Z,64.20
2018-03-24T13:35:07.567Z,66.80
2018-03-24T13:37:34.502Z,66.60
2018-03-24T13:40:01.492Z,67.20
2018-03-24T13:42:28.512Z,69.50
2018-03-24T13:44:55.389Z,69.90
2018-03-24T13:47:22.321Z,73.60
2018-03-24T13:49:49.235Z,73.80
2018-03-24T13:52:16.231Z,75.80
2018-03-24T13:54:43.144Z,77.10
2018-03-24T13:57:10.082Z,76.20
2018-03-24T13:59:37.073Z,77.00
2018-03-24T14:02:04.059Z,77.70
2018-03-24T14:04:31.024Z,78.10
2018-03-24T14:06:57.942Z,79.30
2018-03-24T14:09:24.991Z,77.00
2018-03-24T14:11:51.988Z,75.30
2018-03-24T14:14:19.010Z,76.90
2018-03-24T14:16:46.013Z,76.90
2018-03-24T14:19:12.871Z,75.90
2018-03-24T14:21:39.899Z,71.20
2018-03-24T14:24:06.871Z,68.70
2018-03-24T14:26:33.827Z,68.80
2018-03-24T14:29:00.746Z,69.80
2018-03-24T14:31:27.708Z,68.10
2018-03-24T14:33:54.729Z,67.70
2018-03-24T14:36:21.684Z,68.70
2018-03-24T14:38:48.585Z,64.90
2018-03-24T14:41:15.608Z,66.10
2018-03-24T14:43:42.573Z,70.00
2018-03-24T14:46:09.488Z,75.80
2018-03-24T14:48:36.443Z,68.60
2018-03-24T14:51:03.484Z,65.00
2018-03-24T14:53:30.377Z,64.20
2018-03-24T14:55:57.274Z,65.00
2018-03-24T14:58:24.229Z,66.70
2018-03-24T15:00:51.128Z,66.70
2018-03-24T15:03:18.122Z,64.40
2018-03-24T15:05:45.058Z,66.20
2018-03-24T15:08:12.779Z,64.90
2018-03-24T15:10:39.664Z,65.00
2018-03-24T15:13:06.591Z,63.70
2018-03-24T15:15:34.309Z,67.80
2018-03-24T15:18:01.208Z,67.20
2018-03-24T15:20:28.932Z,69.70
2018-03-24T15:22:55.935Z,69.50
2018-03-24T15:25:22.888Z,67.10
2018-03-24T15:27:49.780Z,64.70
2018-03-24T15:30:28.892Z,62.70
2018-03-24T15:33:05.008Z,64.00
2018-03-24T15:35:32.781Z,65.40
2018-03-24T15:37:59.738Z,65.30
2018-03-24T15:40:26.877Z,62.90
2018-03-24T15:42:54.516Z,66.10
2018-03-24T15:45:21.397Z,66.00
2018-03-24T15:47:48.364Z,65.20
2018-03-24T15:50:15.260Z,65.70
2018-03-24T15:52:42.942Z,66.00
2018-03-24T15:55:09.972Z,65.40
2018-03-24T15:57:36.866Z,68.20
2018-03-24T16:00:03.904Z,67.50
2018-03-24T16:02:30.805Z,66.70
2018-03-24T16:04:57.812Z,64.90
2018-03-24T16:07:24.688Z,65.50
2018-03-24T16:09:51.633Z,66.40
2018-03-24T16:12:18.566Z,68.40
2018-03-24T16:14:45.521Z,67.90
2018-03-24T16:17:16.299Z,68.70
2018-03-24T16:19:43.315Z,70.00
2018-03-24T16:22:15.554Z,70.40
2018-03-24T16:24:42.701Z,71.30
2018-03-24T16:27:10.220Z,67.70
2018-03-24T16:29:37.214Z,70.30
2018-03-24T16:32:04.165Z,69.80
2018-03-24T16:34:31.035Z,70.20
2018-03-24T16:36:57.988Z,69.70
2018-03-24T16:39:25.748Z,71.70
2018-03-24T16:41:52.778Z,72.30
2018-03-24T16:44:19.667Z,71.40
2018-03-24T16:46:46.556Z,71.30
2018-03-24T16:49:13.552Z,73.50
2018-03-24T16:51:41.205Z,73.80
2018-03-24T16:54:08.914Z,75.50
2018-03-24T16:56:35.868Z,75.40
2018-03-24T16:59:02.777Z,74.10
2018-03-24T17:01:30.507Z,75.40
2018-03-24T17:03:58.152Z,74.80
2018-03-24T17:06:25.054Z,74.80
2018-03-24T17:08:52.050Z,74.50
2018-03-24T17:11:18.952Z,74.90
2018-03-24T17:13:45.933Z,77.40
2018-03-24T17:16:12.833Z,75.90
2018-03-24T17:18:39.712Z,77.20
2018-03-24T17:21:06.640Z,77.10
2018-03-24T17:23:33.644Z,78.50
2018-03-24T17:26:01.613Z,79.50
2018-03-24T17:28:28.610Z,79.90
2018-03-24T17:30:55.476Z,81.40
2018-03-24T17:33:22.456Z,82.10
2018-03-24T17:35:49.396Z,82.50
2018-03-24T17:38:16.300Z,84.00
2018-03-24T17:40:43.320Z,84.30
2018-03-24T17:43:11.015Z,87.30
2018-03-24T17:45:37.945Z,87.30
2018-03-24T17:48:05.001Z,87.20
2018-03-24T17:50:31.996Z,88.10
2018-03-24T17:52:58.960Z,90.10
2018-03-24T17:55:25.831Z,91.70
2018-03-24T17:57:52.735Z,91.60
2018-03-24T18:00:19.709Z,92.80
2018-03-24T18:02:47.382Z,94.90
2018-03-24T18:05:14.352Z,94.90
2018-03-24T18:07:41.251Z,93.90
2018-03-24T18:10:08.229Z,94.20
2018-03-24T18:12:35.184Z,95.70
2018-03-24T18:15:02.085Z,93.80
2018-03-24T18:17:29.804Z,93.50
2018-03-24T18:19:56.766Z,94.20
2018-03-24T18:22:23.700Z,94.60
2018-03-24T18:24:50.668Z,95.20
2018-03-24T18:27:17.595Z,95.20
2018-03-24T18:29:44.550Z,95.80
2018-03-24T18:32:11.464Z,96.60
2018-03-24T18:34:38.445Z,97.60
2018-03-24T18:37:05.321Z,99.00
2018-03-24T18:39:33.052Z,99.20
2018-03-24T18:42:00.024Z,98.90
2018-03-24T18:44:27.736Z,99.50
2018-03-24T18:46:54.728Z,99.50
2018-03-24T18:49:21.720Z,99.90
2018-03-24T18:51:48.790Z,99.90
2018-03-24T18:54:15.776Z,99.90
2018-03-24T18:56:42.731Z,99.90
2018-03-24T18:59:09.678Z,99.90
2018-03-24T19:01:37.408Z,99.90
2018-03-24T19:04:04.439Z,99.90
2018-03-24T19:06:31.340Z,99.90
2018-03-24T19:08:59.040Z,99.90
2018-03-24T19:11:25.922Z,99.90
2018-03-24T19:13:52.819Z,99.90
2018-03-24T19:16:19.795Z,99.90
2018-03-24T19:18:46.740Z,99.90
2018-03-24T19:21:13.753Z,99.90
2018-03-24T19:23:40.644Z,99.90
2018-03-24T19:26:07.625Z,99.90
2018-03-24T19:28:35.284Z,99.90
2018-03-24T19:31:03.045Z,99.90
2018-03-24T19:33:29.988Z,99.90
2018-03-24T19:35:56.881Z,99.90
2018-03-24T19:38:23.857Z,99.90
2018-03-24T19:40:53.218Z,99.90
2018-03-24T19:43:23.031Z,99.90
2018-03-24T19:45:50.135Z,99.90
2018-03-24T19:48:17.020Z,99.90
2018-03-24T19:50:44.128Z,99.90
2018-03-24T19:53:11.023Z,99.90
2018-03-24T19:55:38.207Z,99.90
2018-03-24T19:58:05.106Z,99.90
2018-03-24T20:00:32.788Z,99.90
2018-03-24T20:02:59.731Z,99.90
2018-03-24T20:05:27.866Z,99.90
2018-03-24T20:07:57.511Z,99.90
2018-03-24T20:10:32.539Z,99.90
2018-03-24T20:13:07.445Z,99.90
2018-03-24T20:15:34.935Z,99.90
2018-03-24T20:18:02.620Z,99.90
2018-03-24T20:20:29.632Z,99.90
2018-03-24T20:22:57.336Z,99.90
2018-03-24T20:25:24.295Z,99.90
2018-03-24T20:27:51.253Z,99.90
2018-03-24T20:30:18.225Z,99.90
2018-03-24T20:32:45.228Z,99.90
2018-03-24T20:35:12.188Z,99.90
2018-03-24T20:37:39.137Z,99.90
2018-03-24T20:40:06.819Z,99.90
2018-03-24T20:42:33.821Z,99.90
2018-03-24T20:45:00.739Z,99.90
2018-03-24T20:47:28.541Z,99.90
2018-03-24T20:49:55.720Z,99.90
2018-03-24T20:52:22.660Z,99.90
2018-03-24T20:55:00.730Z,99.90
2018-03-24T20:57:33.000Z,99.90
2018-03-24T21:00:03.657Z,99.90
2018-03-24T21:02:30.815Z,99.90
2018-03-24T21:05:09.657Z,99.90
2018-03-24T21:07:48.223Z,99.90
2018-03-24T21:10:28.425Z,99.90
2018-03-24T21:13:07.937Z,99.90
2018-03-24T21:15:47.878Z,99.90
2018-03-24T21:18:15.565Z,99.90
2018-03-24T21:20:46.400Z,99.90
2018-03-24T21:23:24.682Z,99.90
2018-03-24T21:26:03.252Z,99.90
2018-03-24T21:28:30.905Z,99.90
2018-03-24T21:31:09.175Z,99.90
2018-03-24T21:33:36.838Z,99.90
2018-03-24T21:36:16.381Z,99.90
2018-03-24T21:38:53.575Z,99.90
2018-03-24T21:41:30.803Z,99.90
2018-03-24T21:44:05.292Z,99.90
2018-03-24T21:46:43.800Z,99.90
2018-03-24T21:49:23.189Z,99.90
2018-03-24T21:52:03.647Z,99.90
2018-03-24T21:54:42.370Z,99.90
2018-03-24T21:57:22.005Z,99.90
2018-03-24T22:00:00.598Z,99.90
2018-03-24T22:02:28.297Z,99.90
2018-03-24T22:04:58.782Z,99.90
2018-03-24T22:07:37.623Z,99.90
2018-03-24T22:10:09.126Z,99.90
2018-03-24T22:12:36.116Z,99.90
2018-03-24T22:15:03.124Z,99.90
2018-03-24T22:17:35.368Z,99.90
2018-03-24T22:20:02.969Z,99.90
2018-03-24T22:22:36.417Z,99.90
2018-03-24T22:25:04.316Z,99.90
2018-03-24T22:27:31.653Z,99.90
2018-03-24T22:29:58.633Z,99.90
2018-03-24T22:32:26.357Z,99.90
2018-03-24T22:35:06.866Z,99.90
2018-03-24T22:37:43.893Z,99.90
2018-03-24T22:40:19.887Z,99.90
2018-03-24T22:42:46.930Z,99.90
2018-03-24T22:45:25.479Z,99.90
2018-03-24T22:47:53.160Z,99.90
2018-03-24T22:50:32.483Z,99.90
2018-03-24T22:53:00.169Z,99.90
2018-03-24T22:55:27.112Z,99.90
2018-03-24T22:57:53.997Z,99.90
2018-03-24T23:00:33.023Z,99.90
2018-03-24T23:03:15.472Z,99.90
2018-03-24T23:05:56.366Z,99.90
2018-03-24T23:08:38.467Z,99.90
2018-03-24T23:11:06.978Z,99.90
2018-03-24T23:13:33.922Z,99.90
2018-03-24T23:16:00.867Z,99.90
2018-03-24T23:18:27.735Z,99.90
2018-03-24T23:20:54.689Z,99.90
2018-03-24T23:23:21.588Z,99.90
2018-03-24T23:25:48.556Z,99.90
2018-03-24T23:28:15.440Z,99.90
2018-03-24T23:30:47.210Z,99.90
2018-03-24T23:33:25.771Z,99.90
2018-03-24T23:36:00.786Z,99.90
2018-03-24T23:38:39.008Z,99.90
2018-03-24T23:41:06.698Z,99.90
2018-03-24T23:43:35.617Z,99.90
2018-03-24T23:46:14.335Z,99.90
2018-03-24T23:48:41.999Z,99.90
2018-03-24T23:51:20.741Z,99.90
2018-03-24T23:53:59.501Z,99.90
2018-03-24T23:56:27.038Z,99.90
2018-03-24T23:59:05.009Z,99.90
